< < Back
Terminal Aerodrome Forecast


Current Version              Previous Versions:   1  2  3  4  5  6  7  8  9  

Terminal Aerodrome Forecast

216
FTUS42 KFFC 311120
TAFFTY
TAF
KFTY 311120Z 3112/0112 VRB03KT P6SM SCT250
     FM311800 20003KT P6SM BKN200
     FM010000 00000KT P6SM OVC150
     FM011000 00000KT P6SM SCT025 OVC150=

Latest METAR

909
SAUS70 KWBC 311900 RRA
MTRFTY
METAR KFTY 311853Z VRB04KT 10SM CLR 11/M08 A3032 RMK AO2 SLP269
T01061078


USA.gov is the U.S. government's official web portal to all federal, state and local government web resources and services.